sensor_id;sensor_type;location;lat;lon;timestamp;pressure;altitude;pressure_sealevel;temperature;humidity
39999;BME280;25696;42.646;23.368;2023-07-31T00:02:18;94124.97;;;22.39;70.40
39999;BME280;25696;42.646;23.368;2023-07-31T00:04:43;94150.06;;;22.56;70.75
39999;BME280;25696;42.646;23.368;2023-07-31T00:22:43;94148.94;;;22.62;70.33
39999;BME280;25696;42.646;23.368;2023-07-31T00:25:08;94166.41;;;22.71;69.83
39999;BME280;25696;42.646;23.368;2023-07-31T00:27:33;94148.31;;;22.70;69.63
39999;BME280;25696;42.646;23.368;2023-07-31T00:29:59;94161.72;;;22.72;69.83
39999;BME280;25696;42.646;23.368;2023-07-31T00:32:24;94161.03;;;22.56;70.82
39999;BME280;25696;42.646;23.368;2023-07-31T00:34:50;94153.91;;;22.60;71.81
39999;BME280;25696;42.646;23.368;2023-07-31T00:37:15;94135.78;;;22.59;71.76
39999;BME280;25696;42.646;23.368;2023-07-31T00:39:41;94140.81;;;22.42;72.31
39999;BME280;25696;42.646;23.368;2023-07-31T00:42:07;94142.94;;;22.50;72.83
39999;BME280;25696;42.646;23.368;2023-07-31T00:44:33;94144.59;;;22.51;72.47
39999;BME280;25696;42.646;23.368;2023-07-31T00:46:58;94145.13;;;22.53;72.87
39999;BME280;25696;42.646;23.368;2023-07-31T00:49:24;94112.41;;;22.33;73.28
39999;BME280;25696;42.646;23.368;2023-07-31T00:51:50;94132.78;;;22.22;73.81
39999;BME280;25696;42.646;23.368;2023-07-31T00:54:16;94146.41;;;22.32;74.26
39999;BME280;25696;42.646;23.368;2023-07-31T00:56:45;94145.94;;;22.25;74.90
39999;BME280;25696;42.646;23.368;2023-07-31T01:01:46;94125.38;;;21.79;75.85
39999;BME280;25696;42.646;23.368;2023-07-31T01:04:16;94127.56;;;21.82;76.49
39999;BME280;25696;42.646;23.368;2023-07-31T01:11:56;94113.59;;;21.73;76.56
39999;BME280;25696;42.646;23.368;2023-07-31T01:14:22;94120.44;;;21.76;77.09
39999;BME280;25696;42.646;23.368;2023-07-31T01:16:50;94103.25;;;21.65;77.40
39999;BME280;25696;42.646;23.368;2023-07-31T01:19:18;94101.03;;;21.72;77.03
39999;BME280;25696;42.646;23.368;2023-07-31T01:27:21;94122.63;;;21.79;78.39
39999;BME280;25696;42.646;23.368;2023-07-31T01:50:30;94074.53;;;20.99;82.21
39999;BME280;25696;42.646;23.368;2023-07-31T01:52:56;94075.06;;;21.01;82.59
39999;BME280;25696;42.646;23.368;2023-07-31T01:55:21;94087.44;;;20.88;83.62
39999;BME280;25696;42.646;23.368;2023-07-31T01:57:47;94075.44;;;20.79;83.85
39999;BME280;25696;42.646;23.368;2023-07-31T02:00:13;94116.97;;;21.06;83.98
39999;BME280;25696;42.646;23.368;2023-07-31T02:02:39;94119.69;;;21.11;83.59
39999;BME280;25696;42.646;23.368;2023-07-31T02:05:05;94125.44;;;21.10;83.94
39999;BME280;25696;42.646;23.368;2023-07-31T02:07:30;94122.16;;;21.03;83.85
39999;BME280;25696;42.646;23.368;2023-07-31T02:09:56;94138.84;;;21.16;83.75
39999;BME280;25696;42.646;23.368;2023-07-31T02:12:21;94126.81;;;21.07;84.39
39999;BME280;25696;42.646;23.368;2023-07-31T02:14:47;94125.44;;;21.10;84.08
39999;BME280;25696;42.646;23.368;2023-07-31T02:40:29;94138.44;;;21.48;83.00
39999;BME280;25696;42.646;23.368;2023-07-31T02:42:54;94122.78;;;21.48;82.63
39999;BME280;25696;42.646;23.368;2023-07-31T02:45:19;94133.44;;;21.55;82.83
39999;BME280;25696;42.646;23.368;2023-07-31T02:47:45;94126.91;;;21.51;82.61
39999;BME280;25696;42.646;23.368;2023-07-31T02:50:10;94135.16;;;21.46;82.91
39999;BME280;25696;42.646;23.368;2023-07-31T02:52:36;94149.06;;;21.54;82.47
39999;BME280;25696;42.646;23.368;2023-07-31T02:55:01;94150.72;;;21.55;82.35
39999;BME280;25696;42.646;23.368;2023-07-31T02:57:26;94160.31;;;21.53;82.56
39999;BME280;25696;42.646;23.368;2023-07-31T02:59:52;94153.16;;;21.57;81.96
39999;BME280;25696;42.646;23.368;2023-07-31T03:02:17;94152.88;;;21.63;81.84
39999;BME280;25696;42.646;23.368;2023-07-31T03:04:43;94152.34;;;21.56;81.67
39999;BME280;25696;42.646;23.368;2023-07-31T03:07:08;94148.00;;;21.50;81.80
39999;BME280;25696;42.646;23.368;2023-07-31T03:09:34;94148.00;;;21.50;81.74
39999;BME280;25696;42.646;23.368;2023-07-31T03:11:59;94148.50;;;21.57;81.63
39999;BME280;25696;42.646;23.368;2023-07-31T03:14:25;94158.94;;;21.60;81.42
39999;BME280;25696;42.646;23.368;2023-07-31T03:16:51;94159.22;;;21.54;81.94
39999;BME280;25696;42.646;23.368;2023-07-31T03:19:17;94140.28;;;21.57;81.39
39999;BME280;25696;42.646;23.368;2023-07-31T03:21:42;94165.50;;;21.59;81.82
39999;BME280;25696;42.646;23.368;2023-07-31T03:24:08;94174.78;;;21.63;81.37
39999;BME280;25696;42.646;23.368;2023-07-31T03:26:33;94173.72;;;21.59;81.48
39999;BME280;25696;42.646;23.368;2023-07-31T03:28:59;94156.75;;;21.52;81.75
39999;BME280;25696;42.646;23.368;2023-07-31T03:31:24;94161.97;;;21.49;82.25
39999;BME280;25696;42.646;23.368;2023-07-31T03:33:49;94175.91;;;21.63;82.03
39999;BME280;25696;42.646;23.368;2023-07-31T03:36:15;94173.69;;;21.65;81.49
39999;BME280;25696;42.646;23.368;2023-07-31T03:38:40;94172.09;;;21.53;82.51
39999;BME280;25696;42.646;23.368;2023-07-31T03:41:06;94178.94;;;21.56;82.33
39999;BME280;25696;42.646;23.368;2023-07-31T03:43:32;94178.66;;;21.52;82.29
